sensor_id;sensor_type;location;lat;lon;timestamp;pressure;altitude;pressure_sealevel;temperature
78669;BMP280;67984;45.118;20.724;2023-05-07T00:08:38;100557.84;;;15.25
78669;BMP280;67984;45.118;20.724;2023-05-07T00:18:39;100546.06;;;15.10
78669;BMP280;67984;45.118;20.724;2023-05-07T00:28:40;100544.31;;;15.00
78669;BMP280;67984;45.118;20.724;2023-05-07T00:38:41;100539.16;;;14.93
78669;BMP280;67984;45.118;20.724;2023-05-07T00:48:42;100548.19;;;14.92
78669;BMP280;67984;45.118;20.724;2023-05-07T00:58:42;100544.47;;;14.90
78669;BMP280;67984;45.118;20.724;2023-05-07T01:08:44;100552.09;;;14.81
78669;BMP280;67984;45.118;20.724;2023-05-07T01:18:45;100556.66;;;14.73
78669;BMP280;67984;45.118;20.724;2023-05-07T01:28:49;100563.78;;;14.76
78669;BMP280;67984;45.118;20.724;2023-05-07T01:38:50;100558.88;;;14.78
78669;BMP280;67984;45.118;20.724;2023-05-07T01:48:50;100547.25;;;14.76
78669;BMP280;67984;45.118;20.724;2023-05-07T01:58:51;100543.59;;;14.70
78669;BMP280;67984;45.118;20.724;2023-05-07T02:08:52;100545.94;;;14.65
78669;BMP280;67984;45.118;20.724;2023-05-07T02:18:54;100551.31;;;14.54
78669;BMP280;67984;45.118;20.724;2023-05-07T02:28:55;100533.78;;;14.44
78669;BMP280;67984;45.118;20.724;2023-05-07T02:38:56;100524.88;;;14.35
78669;BMP280;67984;45.118;20.724;2023-05-07T02:48:57;100518.56;;;14.29
78669;BMP280;67984;45.118;20.724;2023-05-07T02:58:58;100511.50;;;14.26
78669;BMP280;67984;45.118;20.724;2023-05-07T03:09:03;100516.38;;;14.24
78669;BMP280;67984;45.118;20.724;2023-05-07T03:19:04;100518.59;;;14.25
78669;BMP280;67984;45.118;20.724;2023-05-07T03:29:05;100525.75;;;14.25
78669;BMP280;67984;45.118;20.724;2023-05-07T03:39:06;100524.63;;;14.26
78669;BMP280;67984;45.118;20.724;2023-05-07T03:49:12;100540.63;;;14.35
78669;BMP280;67984;45.118;20.724;2023-05-07T03:59:13;100532.25;;;14.47
78669;BMP280;67984;45.118;20.724;2023-05-07T04:09:18;100551.34;;;14.80
78669;BMP280;67984;45.118;20.724;2023-05-07T04:19:21;100556.22;;;15.57
78669;BMP280;67984;45.118;20.724;2023-05-07T04:29:26;100567.72;;;16.28
78669;BMP280;67984;45.118;20.724;2023-05-07T04:39:28;100579.53;;;16.59
78669;BMP280;67984;45.118;20.724;2023-05-07T04:49:29;100589.31;;;16.78
78669;BMP280;67984;45.118;20.724;2023-05-07T04:59:32;100592.13;;;16.87
78669;BMP280;67984;45.118;20.724;2023-05-07T05:09:33;100593.63;;;17.03
78669;BMP280;67984;45.118;20.724;2023-05-07T05:19:35;100586.03;;;17.25
78669;BMP280;67984;45.118;20.724;2023-05-07T05:29:35;100587.28;;;17.64
78669;BMP280;67984;45.118;20.724;2023-05-07T05:39:36;100602.50;;;17.89
78669;BMP280;67984;45.118;20.724;2023-05-07T05:49:37;100617.31;;;18.14
78669;BMP280;67984;45.118;20.724;2023-05-07T05:59:40;100602.69;;;18.38
78669;BMP280;67984;45.118;20.724;2023-05-07T06:09:42;100610.34;;;18.61
78669;BMP280;67984;45.118;20.724;2023-05-07T06:19:43;100596.59;;;18.91
78669;BMP280;67984;45.118;20.724;2023-05-07T06:29:45;100608.97;;;19.18
78669;BMP280;67984;45.118;20.724;2023-05-07T06:39:49;100598.41;;;19.52
78669;BMP280;67984;45.118;20.724;2023-05-07T06:49:51;100596.53;;;19.74
78669;BMP280;67984;45.118;20.724;2023-05-07T06:59:54;100603.09;;;20.03
78669;BMP280;67984;45.118;20.724;2023-05-07T07:09:56;100607.56;;;20.36
78669;BMP280;67984;45.118;20.724;2023-05-07T07:19:57;100603.28;;;20.69
78669;BMP280;67984;45.118;20.724;2023-05-07T07:29:57;100602.06;;;21.00
78669;BMP280;67984;45.118;20.724;2023-05-07T07:39:59;100617.44;;;21.23
78669;BMP280;67984;45.118;20.724;2023-05-07T07:50:18;100601.97;;;21.57
78669;BMP280;67984;45.118;20.724;2023-05-07T08:00:19;100604.28;;;21.91
78669;BMP280;67984;45.118;20.724;2023-05-07T08:10:25;100613.94;;;22.29
78669;BMP280;67984;45.118;20.724;2023-05-07T08:20:33;100608.72;;;22.76
78669;BMP280;67984;45.118;20.724;2023-05-07T08:30:36;100610.34;;;22.97
78669;BMP280;67984;45.118;20.724;2023-05-07T08:40:38;100596.91;;;23.14
78669;BMP280;67984;45.118;20.724;2023-05-07T08:50:44;100605.06;;;23.34
78669;BMP280;67984;45.118;20.724;2023-05-07T09:00:46;100616.50;;;23.63
78669;BMP280;67984;45.118;20.724;2023-05-07T09:10:48;100608.94;;;23.91
78669;BMP280;67984;45.118;20.724;2023-05-07T09:20:49;100604.00;;;24.12
78669;BMP280;67984;45.118;20.724;2023-05-07T09:30:55;100614.25;;;24.19
78669;BMP280;67984;45.118;20.724;2023-05-07T09:41:06;100616.97;;;24.39
78669;BMP280;67984;45.118;20.724;2023-05-07T09:51:30;100595.66;;;24.59
78669;BMP280;67984;45.118;20.724;2023-05-07T10:01:35;100590.06;;;24.96
78669;BMP280;67984;45.118;20.724;2023-05-07T10:11:37;100583.28;;;25.46
78669;BMP280;67984;45.118;20.724;2023-05-07T10:21:53;100575.72;;;25.44
78669;BMP280;67984;45.118;20.724;2023-05-07T10:32:30;100573.63;;;25.54
78669;BMP280;67984;45.118;20.724;2023-05-07T10:42:33;100565.28;;;26.60
78669;BMP280;67984;45.118;20.724;2023-05-07T10:52:34;100565.44;;;27.36
78669;BMP280;67984;45.118;20.724;2023-05-07T11:03:12;100558.28;;;27.93
78669;BMP280;67984;45.118;20.724;2023-05-07T11:13:45;100564.97;;;28.32
78669;BMP280;67984;45.118;20.724;2023-05-07T11:34:01;100556.53;;;28.68
78669;BMP280;67984;45.118;20.724;2023-05-07T11:44:02;100552.38;;;29.02
78669;BMP280;67984;45.118;20.724;2023-05-07T11:54:04;100560.50;;;29.25
78669;BMP280;67984;45.118;20.724;2023-05-07T12:04:08;100554.75;;;29.11
78669;BMP280;67984;45.118;20.724;2023-05-07T12:14:09;100540.97;;;29.20
78669;BMP280;67984;45.118;20.724;2023-05-07T12:24:10;100531.72;;;28.46
78669;BMP280;67984;45.118;20.724;2023-05-07T12:34:11;100520.97;;;27.90
78669;BMP280;67984;45.118;20.724;2023-05-07T12:44:15;100516.84;;;27.72
78669;BMP280;67984;45.118;20.724;2023-05-07T12:54:31;100500.81;;;27.45
78669;BMP280;67984;45.118;20.724;2023-05-07T13:04:33;100490.19;;;27.96
78669;BMP280;67984;45.118;20.724;2023-05-07T13:14:33;100485.47;;;28.18
78669;BMP280;67984;45.118;20.724;2023-05-07T13:24:34;100477.19;;;28.11
78669;BMP280;67984;45.118;20.724;2023-05-07T13:34:35;100481.59;;;28.14
78669;BMP280;67984;45.118;20.724;2023-05-07T13:44:35;100474.94;;;28.20
78669;BMP280;67984;45.118;20.724;2023-05-07T13:54:36;100470.69;;;28.76
78669;BMP280;67984;45.118;20.724;2023-05-07T14:04:37;100467.38;;;28.93
78669;BMP280;67984;45.118;20.724;2023-05-07T14:14:38;100469.78;;;28.97
78669;BMP280;67984;45.118;20.724;2023-05-07T14:24:39;100465.66;;;28.61
78669;BMP280;67984;45.118;20.724;2023-05-07T14:34:40;100460.28;;;28.61
78669;BMP280;67984;45.118;20.724;2023-05-07T14:44:40;100451.47;;;28.66
78669;BMP280;67984;45.118;20.724;2023-05-07T14:54:42;100448.97;;;28.39
78669;BMP280;67984;45.118;20.724;2023-05-07T15:04:43;100450.63;;;28.02
78669;BMP280;67984;45.118;20.724;2023-05-07T15:14:47;100442.91;;;27.77
78669;BMP280;67984;45.118;20.724;2023-05-07T15:24:48;100451.56;;;27.43
78669;BMP280;67984;45.118;20.724;2023-05-07T15:34:48;100452.84;;;27.04
78669;BMP280;67984;45.118;20.724;2023-05-07T15:44:50;100445.22;;;26.75
78669;BMP280;67984;45.118;20.724;2023-05-07T15:54:51;100448.88;;;26.56
78669;BMP280;67984;45.118;20.724;2023-05-07T16:04:52;100443.75;;;26.47
78669;BMP280;67984;45.118;20.724;2023-05-07T16:14:53;100447.84;;;26.37
78669;BMP280;67984;45.118;20.724;2023-05-07T16:24:54;100440.50;;;26.21
78669;BMP280;67984;45.118;20.724;2023-05-07T16:34:55;100428.06;;;26.07
78669;BMP280;67984;45.118;20.724;2023-05-07T16:44:56;100429.44;;;25.92
78669;BMP280;67984;45.118;20.724;2023-05-07T16:54:57;100428.09;;;25.66
78669;BMP280;67984;45.118;20.724;2023-05-07T17:05:00;100428.06;;;25.24
78669;BMP280;67984;45.118;20.724;2023-05-07T17:15:01;100440.09;;;24.84
78669;BMP280;67984;45.118;20.724;2023-05-07T17:25:02;100448.84;;;24.39
78669;BMP280;67984;45.118;20.724;2023-05-07T17:35:03;100450.41;;;23.92
78669;BMP280;67984;45.118;20.724;2023-05-07T17:45:05;100458.94;;;23.47
78669;BMP280;67984;45.118;20.724;2023-05-07T17:55:06;100472.03;;;23.02
78669;BMP280;67984;45.118;20.724;2023-05-07T18:05:07;100476.47;;;22.58
78669;BMP280;67984;45.118;20.724;2023-05-07T18:15:09;100515.38;;;22.24
78669;BMP280;67984;45.118;20.724;2023-05-07T18:25:09;100514.28;;;21.66
78669;BMP280;67984;45.118;20.724;2023-05-07T18:35:10;100514.19;;;21.16
78669;BMP280;67984;45.118;20.724;2023-05-07T18:45:11;100526.81;;;20.76
78669;BMP280;67984;45.118;20.724;2023-05-07T18:55:12;100530.66;;;20.45
78669;BMP280;67984;45.118;20.724;2023-05-07T19:05:12;100536.50;;;20.22
78669;BMP280;67984;45.118;20.724;2023-05-07T19:15:13;100541.41;;;20.03
78669;BMP280;67984;45.118;20.724;2023-05-07T19:25:14;100550.09;;;19.82
78669;BMP280;67984;45.118;20.724;2023-05-07T19:35:15;100555.88;;;19.68
78669;BMP280;67984;45.118;20.724;2023-05-07T19:45:16;100554.19;;;19.40
78669;BMP280;67984;45.118;20.724;2023-05-07T19:55:17;100546.13;;;19.10
78669;BMP280;67984;45.118;20.724;2023-05-07T20:05:17;100547.53;;;18.90
78669;BMP280;67984;45.118;20.724;2023-05-07T20:15:18;100544.13;;;18.77
78669;BMP280;67984;45.118;20.724;2023-05-07T20:25:20;100552.19;;;18.73
78669;BMP280;67984;45.118;20.724;2023-05-07T20:35:21;100559.06;;;18.71
78669;BMP280;67984;45.118;20.724;2023-05-07T20:45:21;100557.16;;;18.71
78669;BMP280;67984;45.118;20.724;2023-05-07T20:55:22;100560.56;;;18.72
78669;BMP280;67984;45.118;20.724;2023-05-07T21:05:23;100567.00;;;18.71
78669;BMP280;67984;45.118;20.724;2023-05-07T21:15:24;100572.81;;;18.66
78669;BMP280;67984;45.118;20.724;2023-05-07T21:25:25;100580.00;;;18.53
78669;BMP280;67984;45.118;20.724;2023-05-07T21:35:25;100579.22;;;18.40
78669;BMP280;67984;45.118;20.724;2023-05-07T21:45:26;100576.97;;;18.26
78669;BMP280;67984;45.118;20.724;2023-05-07T21:55:27;100576.53;;;18.15
78669;BMP280;67984;45.118;20.724;2023-05-07T22:05:27;100580.84;;;18.09
78669;BMP280;67984;45.118;20.724;2023-05-07T22:15:28;100572.81;;;18.01
78669;BMP280;67984;45.118;20.724;2023-05-07T22:25:31;100583.53;;;17.94
78669;BMP280;67984;45.118;20.724;2023-05-07T22:35:33;100581.66;;;17.94
78669;BMP280;67984;45.118;20.724;2023-05-07T22:45:34;100573.38;;;17.92
78669;BMP280;67984;45.118;20.724;2023-05-07T22:55:35;100576.88;;;17.89
78669;BMP280;67984;45.118;20.724;2023-05-07T23:05:36;100569.47;;;17.97
78669;BMP280;67984;45.118;20.724;2023-05-07T23:15:37;100561.63;;;18.09
78669;BMP280;67984;45.118;20.724;2023-05-07T23:25:37;100554.13;;;18.20
78669;BMP280;67984;45.118;20.724;2023-05-07T23:35:38;100553.41;;;18.19
78669;BMP280;67984;45.118;20.724;2023-05-07T23:45:39;100546.97;;;18.20
78669;BMP280;67984;45.118;20.724;2023-05-07T23:55:39;100545.56;;;18.03
